createdAt,value
2023-03-10T00:01:53.635Z,25.58
2023-03-10T00:06:57.966Z,24.95
2023-03-10T00:12:02.373Z,25.83
2023-03-10T00:17:08.610Z,24.20
2023-03-10T00:22:13.128Z,22.35
2023-03-10T00:27:17.385Z,21.55
2023-03-10T00:32:23.106Z,23.73
2023-03-10T00:37:27.522Z,22.48
2023-03-10T00:42:31.796Z,21.20
2023-03-10T00:47:37.604Z,23.88
2023-03-10T00:52:41.838Z,18.52
2023-03-10T00:57:48.497Z,22.13
2023-03-10T01:02:54.636Z,20.42
2023-03-10T01:07:59.214Z,21.58
2023-03-10T01:13:03.584Z,21.67
2023-03-10T01:18:09.312Z,35.15
2023-03-10T01:23:17.380Z,35.88
2023-03-10T01:28:22.465Z,40.17
2023-03-10T01:33:28.423Z,33.73
2023-03-10T01:38:32.688Z,39.03
2023-03-10T01:43:39.954Z,29.50
2023-03-10T01:53:49.972Z,50.70
2023-03-10T01:58:55.366Z,108.55
2023-03-10T02:04:04.837Z,30.25
2023-03-10T02:09:12.356Z,66.00
2023-03-10T02:14:17.070Z,44.67
2023-03-10T02:19:48.813Z,43.80
2023-03-10T02:24:56.084Z,25.00
2023-03-10T02:30:06.943Z,34.13
2023-03-10T02:35:13.559Z,35.63
2023-03-10T02:40:34.132Z,24.92
2023-03-10T02:45:48.176Z,22.83
2023-03-10T02:50:54.594Z,20.38
2023-03-10T02:56:00.599Z,18.88
2023-03-10T03:01:09.837Z,15.60
2023-03-10T03:06:17.974Z,14.95
2023-03-10T03:11:23.380Z,14.27
2023-03-10T03:16:29.553Z,13.27
2023-03-10T03:21:38.197Z,13.90
2023-03-10T03:26:42.726Z,11.07
2023-03-10T03:31:55.469Z,11.93
2023-03-10T03:37:04.700Z,12.55
2023-03-10T03:42:13.825Z,10.80
2023-03-10T03:47:27.750Z,9.48
2023-03-10T03:52:33.360Z,9.25
2023-03-10T03:57:38.312Z,10.73
2023-03-10T04:02:44.779Z,8.25
2023-03-10T04:07:50.200Z,8.00
2023-03-10T04:12:56.211Z,7.72
2023-03-10T04:18:03.009Z,7.38
2023-03-10T04:23:07.400Z,7.32
2023-03-10T04:28:13.494Z,5.90
2023-03-10T04:33:19.556Z,7.40
2023-03-10T04:38:26.347Z,6.60
2023-03-10T04:43:31.226Z,5.70
2023-03-10T04:48:37.576Z,6.78
2023-03-10T04:53:41.971Z,7.55
2023-03-10T04:58:47.233Z,5.93
2023-03-10T05:03:53.010Z,7.43
2023-03-10T05:08:58.132Z,5.90
2023-03-10T05:14:02.512Z,5.13
2023-03-10T05:19:08.701Z,4.05
2023-03-10T05:24:13.727Z,4.80
2023-03-10T05:29:20.915Z,5.20
2023-03-10T05:34:32.475Z,4.25
2023-03-10T05:39:39.470Z,4.13
2023-03-10T05:44:48.546Z,4.75
2023-03-10T05:49:54.487Z,5.75
2023-03-10T05:54:59.654Z,29.98
2023-03-10T06:00:04.666Z,16.25
2023-03-10T06:05:18.992Z,15.70
2023-03-10T06:15:28.374Z,9.88
2023-03-10T06:20:34.418Z,8.88
2023-03-10T06:25:39.324Z,9.52
2023-03-10T06:30:43.698Z,17.65
2023-03-10T06:35:49.523Z,15.00
2023-03-10T06:45:58.772Z,6.13
2023-03-10T06:51:07.940Z,6.25
2023-03-10T06:56:14.872Z,4.80
2023-03-10T07:01:26.060Z,4.07
2023-03-10T07:06:31.896Z,4.03
2023-03-10T07:11:36.385Z,4.75
2023-03-10T07:16:41.193Z,4.97
2023-03-10T07:21:46.946Z,8.02
2023-03-10T07:26:51.213Z,5.53
2023-03-10T07:31:55.615Z,6.32
2023-03-10T07:37:01.308Z,4.35
2023-03-10T07:42:05.917Z,3.63
2023-03-10T07:47:10.951Z,3.78
2023-03-10T07:52:18.271Z,3.15
2023-03-10T07:57:22.677Z,3.80
2023-03-10T08:02:27.765Z,3.88
2023-03-10T08:07:34.046Z,3.40
2023-03-10T08:12:38.521Z,3.83
2023-03-10T08:17:42.841Z,3.38
2023-03-10T08:22:48.574Z,3.30
2023-03-10T08:27:52.873Z,3.75
2023-03-10T08:32:57.413Z,3.20
2023-03-10T08:38:03.282Z,2.45
2023-03-10T08:48:11.582Z,2.80
2023-03-10T08:53:17.361Z,2.85
2023-03-10T09:03:26.095Z,2.40
2023-03-10T09:08:31.897Z,3.15
2023-03-10T09:18:41.528Z,2.50
2023-03-10T09:23:49.301Z,2.40
2023-03-10T09:28:56.764Z,2.55
2023-03-10T09:34:01.400Z,2.13
2023-03-10T09:39:07.254Z,3.05
2023-03-10T09:44:24.235Z,2.20
2023-03-10T09:49:36.885Z,2.53
2023-03-10T09:54:53.068Z,2.40
2023-03-10T10:00:01.139Z,2.83
2023-03-10T10:05:15.546Z,2.60
2023-03-10T10:15:35.288Z,2.45
2023-03-10T10:20:43.861Z,2.55
2023-03-10T10:25:50.527Z,2.72
2023-03-10T10:31:12.256Z,3.10
2023-03-10T10:36:18.868Z,3.53
2023-03-10T10:41:28.732Z,3.90
2023-03-10T10:46:33.137Z,3.25
2023-03-10T10:51:38.911Z,5.95
2023-03-10T10:56:53.513Z,5.03
2023-03-10T11:01:59.175Z,14.70
2023-03-10T11:07:17.486Z,6.15
2023-03-10T11:12:29.732Z,4.00
2023-03-10T11:17:39.678Z,4.63
2023-03-10T11:22:47.510Z,3.42
2023-03-10T11:28:03.421Z,4.45
2023-03-10T11:38:30.777Z,3.00
2023-03-10T11:43:45.637Z,3.75
2023-03-10T11:49:07.439Z,3.30
2023-03-10T11:54:16.398Z,2.70
2023-03-10T11:59:23.893Z,2.95
2023-03-10T12:04:34.214Z,3.38
2023-03-10T12:09:42.485Z,3.47
2023-03-10T12:14:49.264Z,2.75
2023-03-10T12:20:25.887Z,3.22
2023-03-10T12:25:47.321Z,3.05
2023-03-10T12:30:56.515Z,3.25
2023-03-10T12:36:05.245Z,3.00
2023-03-10T12:41:10.326Z,3.38
2023-03-10T12:46:20.734Z,3.00
2023-03-10T12:51:30.188Z,3.28
2023-03-10T12:56:39.929Z,3.17
2023-03-10T13:01:55.451Z,2.90
2023-03-10T13:07:04.022Z,2.78
2023-03-10T13:12:15.928Z,3.20
2023-03-10T13:17:27.291Z,4.10
2023-03-10T13:22:31.376Z,3.42
2023-03-10T13:27:36.622Z,3.10
2023-03-10T13:32:43.380Z,3.22
2023-03-10T13:38:05.139Z,3.08
2023-03-10T13:43:27.939Z,3.38
2023-03-10T13:48:35.275Z,4.30
2023-03-10T13:53:39.436Z,3.72
2023-03-10T13:58:44.367Z,3.13
2023-03-10T14:03:56.356Z,3.25
2023-03-10T14:09:14.919Z,3.40
2023-03-10T14:14:29.146Z,3.78
2023-03-10T14:19:51.079Z,4.53
2023-03-10T14:24:55.395Z,4.07
2023-03-10T14:30:03.720Z,4.55
2023-03-10T14:35:12.995Z,4.38
2023-03-10T14:40:18.322Z,4.15
2023-03-10T14:45:29.034Z,3.78
2023-03-10T14:50:35.653Z,4.18
2023-03-10T14:55:40.396Z,4.47
2023-03-10T15:00:44.764Z,3.70
2023-03-10T15:05:50.390Z,4.30
2023-03-10T15:10:54.661Z,4.38
2023-03-10T15:15:59.054Z,4.80
2023-03-10T15:21:04.676Z,5.65
2023-03-10T15:31:15.525Z,4.35
2023-03-10T15:36:21.314Z,5.28
2023-03-10T15:41:25.542Z,4.75
2023-03-10T15:46:29.781Z,5.00
2023-03-10T15:51:35.295Z,4.53
2023-03-10T15:56:39.702Z,5.00
2023-03-10T16:01:43.980Z,5.30
2023-03-10T16:06:49.558Z,4.90
2023-03-10T16:11:53.771Z,5.63
2023-03-10T16:16:58.676Z,4.18
2023-03-10T16:22:04.172Z,4.83
2023-03-10T16:27:08.417Z,5.85
2023-03-10T16:32:14.206Z,6.85
2023-03-10T16:37:19.880Z,6.80
2023-03-10T16:42:26.350Z,7.68
2023-03-10T16:47:30.475Z,6.82
2023-03-10T16:52:40.610Z,5.65
2023-03-10T16:57:45.277Z,4.95
2023-03-10T17:02:49.861Z,5.93
2023-03-10T17:08:02.347Z,4.60
2023-03-10T17:13:06.492Z,4.88
2023-03-10T17:18:10.572Z,5.63
2023-03-10T17:23:16.249Z,5.28
2023-03-10T17:28:20.530Z,5.45
2023-03-10T17:33:24.825Z,6.22
2023-03-10T17:38:30.327Z,6.75
2023-03-10T17:43:36.185Z,7.28
2023-03-10T17:53:46.942Z,6.57
2023-03-10T17:58:51.629Z,7.47
2023-03-10T18:03:56.155Z,7.25
2023-03-10T18:09:04.648Z,7.63
2023-03-10T18:14:09.461Z,7.00
2023-03-10T18:19:15.406Z,6.57
2023-03-10T18:24:21.266Z,5.72
2023-03-10T18:34:29.624Z,5.97
2023-03-10T18:39:35.426Z,6.25
2023-03-10T18:44:45.742Z,5.72
2023-03-10T18:49:50.193Z,6.25
2023-03-10T18:54:55.951Z,6.15
2023-03-10T19:00:01.107Z,5.18
2023-03-10T19:05:06.059Z,4.82
2023-03-10T19:10:15.323Z,4.60
2023-03-10T19:15:19.553Z,4.90
2023-03-10T19:20:24.006Z,4.55
2023-03-10T19:25:29.557Z,4.47
2023-03-10T19:30:34.910Z,4.93
2023-03-10T19:35:39.978Z,5.95
2023-03-10T19:40:48.402Z,5.43
2023-03-10T19:45:52.493Z,5.82
2023-03-10T19:50:57.034Z,5.22
2023-03-10T19:56:04.853Z,5.75
2023-03-10T20:01:14.266Z,5.80
2023-03-10T20:06:18.629Z,6.38
2023-03-10T20:11:25.195Z,8.40
2023-03-10T20:16:29.738Z,7.80
2023-03-10T20:21:34.343Z,7.55
2023-03-10T20:26:40.211Z,7.50
2023-03-10T20:31:44.510Z,6.63
2023-03-10T20:36:49.119Z,7.03
2023-03-10T20:41:54.975Z,6.03
2023-03-10T20:46:59.083Z,6.57
2023-03-10T20:52:03.436Z,6.78
2023-03-10T20:57:09.457Z,5.85
2023-03-10T21:02:16.778Z,5.60
2023-03-10T21:07:21.282Z,5.50
2023-03-10T21:12:27.067Z,6.15
2023-03-10T21:17:31.301Z,5.88
2023-03-10T21:22:36.054Z,5.70
2023-03-10T21:27:41.723Z,4.70
2023-03-10T21:32:46.846Z,5.78
2023-03-10T21:37:51.035Z,6.93
2023-03-10T21:42:56.536Z,8.52
2023-03-10T21:48:00.864Z,9.38
2023-03-10T21:53:06.425Z,10.57
2023-03-10T21:58:11.994Z,10.45
2023-03-10T22:03:16.089Z,10.77
2023-03-10T22:08:21.075Z,8.77
2023-03-10T22:13:26.760Z,10.10
2023-03-10T22:18:30.958Z,10.52
2023-03-10T22:23:35.058Z,9.77
2023-03-10T22:28:40.904Z,8.13
2023-03-10T22:33:45.435Z,8.43
2023-03-10T22:38:49.813Z,9.88
2023-03-10T22:43:56.118Z,9.30
2023-03-10T22:49:00.570Z,9.15
2023-03-10T22:54:05.082Z,9.27
2023-03-10T22:59:10.692Z,9.70
2023-03-10T23:04:14.925Z,10.07
2023-03-10T23:09:19.251Z,9.48
2023-03-10T23:14:24.897Z,8.93
2023-03-10T23:19:29.073Z,9.10
2023-03-10T23:24:33.285Z,10.90
2023-03-10T23:29:38.984Z,10.25
2023-03-10T23:34:43.171Z,10.52
2023-03-10T23:39:47.581Z,9.23
2023-03-10T23:44:53.070Z,9.00
2023-03-10T23:49:57.340Z,11.13
2023-03-10T23:55:01.776Z,11.63
